Time;durP1;ratioP1;P1;durP2;ratioP2;P2;SDS_P1;SDS_P2;PMS_P1;PMS_P2;Temp;Humidity;BMP_temperature;BMP_pressure;BME280_temperature;BME280_humidity;BME280_pressure;Samples;Min_cycle;Max_cycle;Signal;HPM_P1;HPM_P2
2023/05/08 00:01:58;;;;;;;25.52;15.25;;;;;;;24.84;46.58;102126.06;5071141;28;20020;-71
2023/05/08 00:04:23;;;;;;;30.27;17.10;;;;;;;24.90;46.18;102130.25;5071330;28;20024;-72
2023/05/08 00:06:50;;;;;;;28.65;16.75;;;;;;;25.26;46.15;102136.47;5057822;28;20021;-71
2023/05/08 00:09:16;;;;;;;33.25;18.33;;;;;;;24.97;46.61;102130.81;5051745;28;20025;-70
2023/05/08 00:11:41;;;;;;;30.40;16.88;;;;;;;25.36;45.82;102138.63;5051718;28;20481;-71
2023/05/08 00:14:06;;;;;;;30.65;18.23;;;;;;;25.36;45.16;102137.75;5051066;28;20078;-71
2023/05/08 00:16:32;;;;;;;34.65;18.35;;;;;;;25.07;45.81;102132.06;5059105;28;20025;-71
2023/05/08 00:18:58;;;;;;;32.33;18.05;;;;;;;25.54;44.28;102136.78;5069339;28;20506;-71
2023/05/08 00:21:24;;;;;;;34.05;18.17;;;;;;;25.33;45.14;102143.25;5067233;28;20443;-72
2023/05/08 00:23:49;;;;;;;34.83;18.90;;;;;;;25.19;44.83;102136.78;5070324;28;20016;-72
2023/05/08 00:26:15;;;;;;;33.13;18.80;;;;;;;25.07;45.76;102137.41;5049443;28;20102;-71
2023/05/08 00:28:40;;;;;;;29.25;17.63;;;;;;;25.20;44.51;102132.31;5057668;28;20032;-71
2023/05/08 00:31:05;;;;;;;33.05;17.85;;;;;;;26.10;43.12;102128.47;5060798;28;20427;-72
2023/05/08 00:33:31;;;;;;;31.13;18.55;;;;;;;25.63;43.36;102129.22;5072250;28;20029;-72
2023/05/08 00:36:02;;;;;;;36.00;19.70;;;;;;;25.54;43.39;102125.19;5063292;28;20028;-71
2023/05/08 00:38:32;;;;;;;27.90;16.52;;;;;;;24.49;46.01;102135.78;5071350;28;20052;-71
2023/05/08 00:40:58;;;;;;;29.75;17.80;;;;;;;24.71;45.63;102130.28;5070243;28;20033;-71
2023/05/08 00:43:26;;;;;;;34.65;19.15;;;;;;;24.58;45.85;102137.16;5060331;28;20065;-71
2023/05/08 00:45:53;;;;;;;36.58;19.70;;;;;;;24.93;45.06;102134.56;5059628;28;20056;-71
2023/05/08 00:48:22;;;;;;;30.50;17.17;;;;;;;24.39;45.81;102140.72;5058270;28;20032;-71
2023/05/08 00:50:48;;;;;;;39.22;20.15;;;;;;;24.55;46.24;102146.16;5050549;28;20116;-71
2023/05/08 00:53:14;;;;;;;39.15;19.60;;;;;;;24.98;45.27;102132.53;5049505;28;20041;-71
2023/05/08 00:55:39;;;;;;;33.33;17.52;;;;;;;24.60;45.48;102144.16;5052074;28;20074;-71
2023/05/08 00:58:05;;;;;;;34.90;19.20;;;;;;;24.15;46.31;102140.06;5068891;28;20119;-71
2023/05/08 01:00:32;;;;;;;33.03;19.02;;;;;;;24.13;46.31;102140.16;5070803;28;20489;-71
2023/05/08 01:02:59;;;;;;;33.47;18.90;;;;;;;24.60;45.87;102138.81;5065644;28;20024;-71
2023/05/08 01:05:26;;;;;;;39.58;19.40;;;;;;;24.45;45.65;102135.06;5049896;28;20463;-71
2023/05/08 01:07:52;;;;;;;35.83;18.17;;;;;;;24.05;47.02;102137.81;5062435;28;20487;-71
2023/05/08 01:10:17;;;;;;;36.58;20.08;;;;;;;24.07;46.80;102131.53;5058331;28;20056;-72
2023/05/08 01:13:10;;;;;;;37.70;20.17;;;;;;;24.03;46.74;102138.84;5067859;28;20245;-71
2023/05/08 01:15:49;;;;;;;37.22;19.58;;;;;;;23.97;47.11;102125.78;5050954;28;20047;-71
2023/05/08 01:18:25;;;;;;;28.70;17.10;;;;;;;24.07;46.70;102135.09;5050419;28;20063;-71
2023/05/08 01:21:12;;;;;;;35.13;19.00;;;;;;;24.04;46.81;102124.53;5068071;28;20032;-71
2023/05/08 01:23:52;;;;;;;38.60;18.55;;;;;;;24.25;46.13;102122.69;5059884;28;20028;-71
2023/05/08 01:26:54;;;;;;;35.17;19.25;;;;;;;24.74;44.92;102124.78;5069321;28;20064;-72
2023/05/08 01:29:23;;;;;;;34.85;17.92;;;;;;;24.14;46.34;102128.53;5066409;28;20031;-71
2023/05/08 01:32:19;;;;;;;35.65;19.08;;;;;;;24.19;46.00;102129.19;5070038;28;20028;-71
2023/05/08 01:34:59;;;;;;;31.92;18.15;;;;;;;24.40;45.69;102131.78;5050830;28;20048;-71
2023/05/08 01:38:09;;;;;;;34.78;18.63;;;;;;;24.80;45.07;102121.81;5067835;28;20089;-71
2023/05/08 01:40:43;;;;;;;34.30;18.63;;;;;;;25.04;43.68;102126.88;5066531;28;20024;-71
2023/05/08 01:43:34;;;;;;;33.88;17.35;;;;;;;24.38;45.61;102133.63;5069469;28;20037;-71
2023/05/08 01:46:05;;;;;;;34.60;16.92;;;;;;;23.95;46.46;102135.66;5056296;28;20086;-72
2023/05/08 01:48:33;;;;;;;33.55;18.45;;;;;;;24.36;45.25;102140.88;5055178;28;20091;-71
2023/05/08 01:51:15;;;;;;;34.75;16.85;;;;;;;24.65;44.60;102136.81;5049085;28;20029;-71
2023/05/08 01:53:43;;;;;;;33.45;17.35;;;;;;;24.77;44.37;102143.38;5058266;28;20074;-71
2023/05/08 01:56:14;;;;;;;33.58;19.17;;;;;;;24.22;45.45;102145.06;5067654;28;20025;-70
2023/05/08 01:58:41;;;;;;;30.58;17.33;;;;;;;23.62;46.65;102144.25;5058504;28;20056;-71
2023/05/08 02:01:08;;;;;;;33.10;17.95;;;;;;;23.85;46.60;102146.72;5053041;28;20040;-71
2023/05/08 02:03:34;;;;;;;32.03;17.30;;;;;;;23.74;46.40;102149.03;5065041;28;20399;-71
2023/05/08 02:06:01;;;;;;;29.40;15.90;;;;;;;23.78;46.30;102153.28;5050816;28;20025;-71
2023/05/08 02:08:28;;;;;;;28.38;15.30;;;;;;;23.25;48.26;102153.84;5065993;28;20109;-71
2023/05/08 02:10:56;;;;;;;28.80;15.00;;;;;;;23.81;46.11;102158.47;5069247;28;20055;-71
2023/05/08 02:13:23;;;;;;;27.98;14.82;;;;;;;22.73;49.26;102152.38;5068733;28;20031;-71
2023/05/08 02:15:52;;;;;;;29.50;15.70;;;;;;;22.50;49.64;102154.16;5068894;28;20491;-71
2023/05/08 02:18:23;;;;;;;25.13;14.45;;;;;;;22.72;49.33;102160.44;5058156;28;20489;-71
2023/05/08 02:20:50;;;;;;;35.30;16.48;;;;;;;22.64;49.80;102155.41;5049079;28;20028;-72
2023/05/08 02:23:18;;;;;;;28.83;15.77;;;;;;;23.18;47.33;102156.75;5047866;28;20028;-71
2023/05/08 02:25:45;;;;;;;30.80;16.27;;;;;;;23.30;46.66;102159.81;5048994;28;20112;-71
2023/05/08 02:28:11;;;;;;;35.05;16.70;;;;;;;22.94;47.77;102157.75;5051752;28;20031;-71
2023/05/08 02:30:39;;;;;;;31.80;16.58;;;;;;;22.80;48.22;102164.50;5060036;28;20028;-71
2023/05/08 02:33:09;;;;;;;41.50;18.88;;;;;;;22.93;48.16;102164.00;5047338;28;20032;-70
2023/05/08 02:35:36;;;;;;;34.78;17.50;;;;;;;23.52;46.85;102160.66;5049255;28;20029;-71
2023/05/08 02:38:02;;;;;;;40.28;18.65;;;;;;;23.08;47.98;102166.06;5065866;28;20020;-71
2023/05/08 02:40:29;;;;;;;43.28;19.85;;;;;;;22.96;48.37;102172.75;5068354;28;20097;-71
2023/05/08 02:42:55;;;;;;;40.25;18.70;;;;;;;23.14;47.19;102165.81;5052393;28;20048;-71
2023/05/08 02:45:25;;;;;;;40.55;19.48;;;;;;;22.90;48.27;102177.47;5049041;28;20420;-71
2023/05/08 02:47:56;;;;;;;35.80;18.27;;;;;;;23.17;47.08;102160.34;5051765;28;20017;-71
2023/05/08 02:50:28;;;;;;;38.38;19.40;;;;;;;23.36;46.55;102154.25;5058530;28;20036;-71
2023/05/08 02:53:02;;;;;;;40.65;21.45;;;;;;;22.90;47.55;102158.81;5048237;28;20480;-71
2023/05/08 02:55:27;;;;;;;42.00;20.20;;;;;;;23.17;46.74;102156.81;5064973;28;20044;-71
2023/05/08 02:58:16;;;;;;;36.60;18.75;;;;;;;23.52;45.53;102144.63;5052327;28;20413;-71
2023/05/08 03:01:31;;;;;;;35.30;18.52;;;;;;;22.98;47.29;102154.03;5067417;28;20037;-71
2023/05/08 03:04:09;;;;;;;38.95;18.00;;;;;;;22.77;47.93;102143.31;5041955;28;20036;-71
2023/05/08 03:06:41;;;;;;;43.03;19.45;;;;;;;23.03;47.37;102141.38;5068283;28;20382;-71
2023/05/08 03:09:15;;;;;;;38.90;19.48;;;;;;;22.93;46.89;102140.91;5067269;28;20032;-71
2023/05/08 03:11:43;;;;;;;39.53;20.70;;;;;;;22.81;47.50;102152.94;5062283;28;20024;-71
2023/05/08 03:14:10;;;;;;;38.58;19.08;;;;;;;22.95;46.73;102146.16;5049353;28;20017;-71
2023/05/08 03:16:38;;;;;;;39.65;19.25;;;;;;;23.11;47.00;102141.94;5059338;28;20052;-71
2023/05/08 03:19:26;;;;;;;38.05;17.95;;;;;;;22.52;48.01;102152.31;5061205;28;20035;-70
2023/05/08 03:21:54;;;;;;;36.05;18.77;;;;;;;22.44;48.13;102149.06;5068586;28;20081;-71
2023/05/08 03:24:22;;;;;;;37.75;18.50;;;;;;;22.90;47.46;102142.81;5068298;28;20025;-71
2023/05/08 03:26:48;;;;;;;37.90;18.25;;;;;;;23.03;47.20;102138.72;5068114;28;20166;-71
2023/05/08 03:29:14;;;;;;;40.50;19.52;;;;;;;22.33;48.79;102145.94;5052577;28;20116;-71
2023/05/08 03:31:42;;;;;;;34.33;17.95;;;;;;;22.05;49.60;102147.00;5067455;28;20032;-71
2023/05/08 03:34:08;;;;;;;33.45;17.30;;;;;;;22.39;49.00;102144.84;5067219;28;20067;-71
2023/05/08 03:36:34;;;;;;;33.88;18.08;;;;;;;22.30;48.84;102146.06;5069820;28;20040;-71
2023/05/08 03:39:00;;;;;;;33.83;17.45;;;;;;;22.29;48.83;102147.84;5059945;28;20021;-71
2023/05/08 03:41:26;;;;;;;28.33;15.32;;;;;;;21.61;49.90;102145.03;5068047;28;20073;-71
2023/05/08 03:43:53;;;;;;;27.08;15.98;;;;;;;21.95;49.10;102150.91;5061180;28;20025;-71
2023/05/08 03:46:19;;;;;;;26.13;14.77;;;;;;;22.08;48.44;102146.88;5047890;28;20021;-71
2023/05/08 03:48:48;;;;;;;26.80;14.65;;;;;;;22.11;48.51;102146.75;5063515;28;20060;-71
2023/05/08 03:51:14;;;;;;;25.42;15.20;;;;;;;22.25;48.61;102137.38;5049282;28;20028;-71
2023/05/08 03:53:40;;;;;;;29.15;15.48;;;;;;;22.23;47.80;102136.56;5069607;28;20051;-71
2023/05/08 03:56:05;;;;;;;29.35;15.32;;;;;;;22.12;48.73;102147.59;5067095;28;20020;-71
2023/05/08 03:58:43;;;;;;;28.10;15.55;;;;;;;22.85;46.67;102133.22;5064672;28;20021;-71
2023/05/08 04:01:23;;;;;;;30.00;15.10;;;;;;;21.87;48.11;102129.91;5067999;28;20025;-71
2023/05/08 04:03:54;;;;;;;31.85;15.88;;;;;;;21.89;48.73;102138.72;5071629;28;20111;-71
2023/05/08 04:06:27;;;;;;;30.23;15.75;;;;;;;21.70;49.33;102135.84;5071788;28;20032;-71
2023/05/08 04:08:58;;;;;;;30.92;16.00;;;;;;;21.85;48.71;102134.41;5061264;28;20504;-71
2023/05/08 04:11:41;;;;;;;27.30;15.68;;;;;;;21.45;50.11;102126.06;5053374;28;20178;-70
2023/05/08 04:14:12;;;;;;;30.10;15.23;;;;;;;21.67;49.63;102131.50;5071287;28;20382;-71
2023/05/08 04:16:41;;;;;;;29.38;15.07;;;;;;;21.17;50.99;102136.78;5071140;28;20029;-71
2023/05/08 04:19:14;;;;;;;32.33;17.08;;;;;;;21.56;49.88;102130.19;5058442;28;20083;-71
2023/05/08 04:21:42;;;;;;;29.05;14.75;;;;;;;21.78;49.15;102139.09;5051513;28;20481;-69
2023/05/08 04:24:11;;;;;;;30.90;15.63;;;;;;;21.79;48.85;102140.84;5051014;28;20031;-71
2023/05/08 04:26:37;;;;;;;33.03;16.02;;;;;;;21.73;49.61;102141.06;5050950;28;20051;-70
2023/05/08 04:29:05;;;;;;;34.60;17.20;;;;;;;21.93;48.63;102152.78;5049994;28;20118;-71
2023/05/08 04:31:33;;;;;;;32.90;17.45;;;;;;;22.20;48.15;102150.84;5057137;28;20059;-70
2023/05/08 04:33:58;;;;;;;34.20;17.60;;;;;;;22.08;48.77;102157.53;5051419;28;20025;-71
2023/05/08 04:36:28;;;;;;;32.13;16.63;;;;;;;21.92;48.79;102164.34;5054325;28;20375;-71
2023/05/08 04:38:53;;;;;;;35.10;17.08;;;;;;;22.58;47.15;102160.97;5059655;28;20025;-71
2023/05/08 04:41:20;;;;;;;30.52;16.13;;;;;;;22.18;48.33;102156.22;5050506;28;20032;-71
2023/05/08 04:43:46;;;;;;;32.40;18.63;;;;;;;22.43;48.27;102163.31;5050604;28;20028;-71
2023/05/08 04:46:11;;;;;;;37.78;17.90;;;;;;;22.36;47.77;102161.81;5050118;28;20028;-71
2023/05/08 04:48:36;;;;;;;34.53;16.88;;;;;;;22.48;47.63;102172.00;5058254;28;20040;-71
2023/05/08 04:51:02;;;;;;;33.42;15.93;;;;;;;22.34;48.28;102161.03;5070080;28;20062;-71
2023/05/08 04:53:27;;;;;;;30.23;15.95;;;;;;;22.69;47.74;102169.41;5070151;28;20072;-71
2023/05/08 04:55:53;;;;;;;31.70;16.25;;;;;;;22.60;48.62;102168.00;5068474;28;20031;-71
2023/05/08 04:58:18;;;;;;;27.98;14.55;;;;;;;22.42;48.96;102177.56;5051961;28;20021;-70
2023/05/08 05:00:44;;;;;;;28.33;15.00;;;;;;;22.64;48.34;102172.28;5068105;28;20024;-71
2023/05/08 05:03:09;;;;;;;33.10;15.57;;;;;;;22.84;47.58;102176.78;5060404;28;20493;-71
2023/05/08 05:05:35;;;;;;;33.53;16.45;;;;;;;22.73;47.22;102171.03;5050241;28;20032;-70
2023/05/08 05:08:00;;;;;;;28.42;14.82;;;;;;;22.99;46.97;102177.09;5066102;28;20038;-71
2023/05/08 05:10:26;;;;;;;30.25;15.95;;;;;;;22.67;47.82;102179.28;5065782;28;20559;-71
2023/05/08 05:12:51;;;;;;;31.10;15.73;;;;;;;22.78;47.48;102184.16;5048091;28;20024;-71
2023/05/08 05:15:16;;;;;;;32.10;14.63;;;;;;;23.09;46.67;102178.44;5049658;28;20094;-72
2023/05/08 05:17:42;;;;;;;25.05;14.70;;;;;;;22.70;47.36;102188.00;5069597;28;20512;-70
2023/05/08 05:20:08;;;;;;;22.48;11.45;;;;;;;22.26;48.93;102192.38;5067621;28;20036;-70
2023/05/08 05:22:33;;;;;;;24.80;13.48;;;;;;;22.80;47.79;102192.97;5050095;28;20029;-70
2023/05/08 05:24:59;;;;;;;28.00;14.15;;;;;;;22.10;49.22;102198.25;5056994;28;20066;-71
2023/05/08 05:27:24;;;;;;;23.70;11.70;;;;;;;22.10;49.66;102195.59;5060257;28;20032;-71
2023/05/08 05:29:49;;;;;;;23.15;13.55;;;;;;;22.03;49.04;102197.59;5070204;28;20024;-71
2023/05/08 05:32:15;;;;;;;27.52;14.50;;;;;;;22.55;48.46;102198.41;5069265;28;20438;-69
2023/05/08 05:34:40;;;;;;;25.40;13.18;;;;;;;22.46;48.70;102216.50;5060791;28;20051;-70
2023/05/08 05:37:06;;;;;;;20.98;11.35;;;;;;;22.18;49.88;102214.81;5068890;28;20542;-70
2023/05/08 05:39:31;;;;;;;25.00;13.30;;;;;;;21.97;49.46;102208.50;5066079;28;20028;-70
2023/05/08 05:41:57;;;;;;;20.50;12.48;;;;;;;21.23;51.52;102220.81;5056628;28;20460;-70
2023/05/08 05:44:22;;;;;;;26.67;13.45;;;;;;;22.13;50.11;102214.13;5054430;28;20025;-70
2023/05/08 05:46:47;;;;;;;23.08;11.77;;;;;;;22.13;48.83;102214.13;5070339;28;20036;-70
2023/05/08 05:49:13;;;;;;;25.95;13.95;;;;;;;21.80;50.13;102230.41;5064108;28;20036;-70
2023/05/08 05:51:38;;;;;;;29.10;14.45;;;;;;;21.72;50.34;102224.47;5049013;28;20112;-70
2023/05/08 05:54:04;;;;;;;27.95;12.70;;;;;;;21.87;50.60;102231.03;5048545;28;20076;-70
2023/05/08 05:56:29;;;;;;;25.52;13.15;;;;;;;22.06;50.29;102228.56;5055728;28;20483;-70
2023/05/08 05:58:55;;;;;;;28.88;14.15;;;;;;;22.19;50.87;102223.69;5063865;28;20431;-70
2023/05/08 06:01:23;;;;;;;27.83;14.45;;;;;;;21.68;51.21;102236.16;5056096;28;20067;-70
2023/05/08 06:03:48;;;;;;;30.05;15.45;;;;;;;21.52;52.45;102236.66;5049477;28;20123;-70
2023/05/08 06:06:14;;;;;;;30.98;15.75;;;;;;;21.99;50.86;102238.56;5050542;28;20112;-70
2023/05/08 06:08:39;;;;;;;27.95;14.38;;;;;;;22.47;50.59;102239.50;5061092;28;20051;-70
2023/05/08 06:11:05;;;;;;;30.50;16.73;;;;;;;22.53;50.78;102249.06;5048670;28;20037;-71
2023/05/08 06:13:30;;;;;;;37.10;16.70;;;;;;;23.20;48.50;102247.38;5065039;28;20032;-71
2023/05/08 06:15:55;;;;;;;38.45;16.40;;;;;;;22.06;51.30;102235.72;5062776;28;20025;-71
2023/05/08 06:18:21;;;;;;;33.78;16.85;;;;;;;22.17;50.90;102230.84;5059888;28;20069;-71
2023/05/08 06:20:46;;;;;;;38.42;16.95;;;;;;;22.45;50.84;102238.72;5052201;28;20408;-71
2023/05/08 06:23:12;;;;;;;41.25;17.50;;;;;;;22.90;49.59;102236.13;5059583;28;20061;-71
2023/05/08 06:25:37;;;;;;;39.58;18.42;;;;;;;23.27;49.25;102230.16;5068344;28;20036;-71
2023/05/08 06:28:05;;;;;;;40.22;16.20;;;;;;;23.48;48.64;102233.75;5063023;28;20032;-70
2023/05/08 06:30:30;;;;;;;40.30;17.55;;;;;;;23.26;49.67;102228.47;5060775;28;20061;-70
2023/05/08 06:32:56;;;;;;;42.08;16.60;;;;;;;23.78;47.85;102225.38;5053335;28;20025;-70
2023/05/08 06:35:21;;;;;;;42.40;15.65;;;;;;;22.69;50.09;102226.22;5048161;28;20116;-71
2023/05/08 06:37:47;;;;;;;42.03;15.45;;;;;;;23.00;49.65;102232.16;5048371;28;20075;-71
2023/05/08 06:40:13;;;;;;;43.42;15.68;;;;;;;22.72;50.54;102233.25;5059606;28;20055;-72
2023/05/08 06:42:39;;;;;;;34.60;15.18;;;;;;;23.05;49.55;102240.81;5050676;28;20025;-72
2023/05/08 06:45:05;;;;;;;38.38;14.88;;;;;;;22.67;50.80;102235.25;5048508;28;20386;-72
2023/05/08 06:47:30;;;;;;;38.88;13.73;;;;;;;22.42;52.27;102236.19;5050693;28;20127;-73
2023/05/08 06:49:56;;;;;;;35.35;14.30;;;;;;;23.99;48.52;102223.56;5054145;28;20043;-72
2023/05/08 06:52:23;;;;;;;38.95;14.00;;;;;;;23.64;48.44;102223.28;5063291;28;20044;-73
2023/05/08 06:54:48;;;;;;;31.08;13.13;;;;;;;23.17;49.49;102232.34;5047386;28;20056;-73
2023/05/08 06:57:15;;;;;;;28.35;11.02;;;;;;;23.47;49.52;102232.00;5063980;28;20028;-72
2023/05/08 06:59:40;;;;;;;27.70;10.25;;;;;;;23.27;50.70;102229.31;5053182;28;20452;-73
2023/05/08 07:02:06;;;;;;;24.88;9.18;;;;;;;23.99;47.46;102225.38;5046890;28;20497;-72
2023/05/08 07:04:31;;;;;;;23.20;8.93;;;;;;;23.96;47.32;102225.50;5050649;28;20024;-72
2023/05/08 07:06:57;;;;;;;29.45;10.30;;;;;;;23.52;48.14;102231.81;5068785;28;20030;-72
2023/05/08 07:09:22;;;;;;;20.70;8.50;;;;;;;23.39;49.04;102234.13;5065478;28;20039;-72
2023/05/08 07:11:48;;;;;;;22.35;8.05;;;;;;;23.82;48.66;102226.06;5050593;28;20668;-72
2023/05/08 07:14:13;;;;;;;28.60;8.48;;;;;;;24.16;47.67;102222.78;5048288;28;20481;-72
2023/05/08 07:16:38;;;;;;;26.90;9.20;;;;;;;24.13;47.83;102214.91;5048237;28;20036;-72
2023/05/08 07:19:04;;;;;;;22.92;9.05;;;;;;;25.39;44.87;102216.06;5047768;28;20024;-72
2023/05/08 07:21:29;;;;;;;22.67;7.95;;;;;;;25.81;44.25;102216.59;5059525;28;20028;-72
2023/05/08 07:23:55;;;;;;;18.98;8.38;;;;;;;26.86;41.22;102213.59;5067935;28;20032;-72
2023/05/08 07:26:21;;;;;;;21.13;8.95;;;;;;;27.42;41.37;102207.66;5067423;28;20388;-73
2023/05/08 07:28:47;;;;;;;26.13;9.70;;;;;;;26.80;42.27;102207.69;5063522;28;20473;-71
2023/05/08 07:31:13;;;;;;;26.92;9.52;;;;;;;26.28;42.62;102208.78;5058827;28;20079;-73
2023/05/08 07:33:39;;;;;;;20.98;8.52;;;;;;;27.53;40.57;102213.28;5049678;28;20063;-72
2023/05/08 07:36:05;;;;;;;23.88;9.38;;;;;;;26.20;42.44;102210.06;5067824;28;20033;-72
2023/05/08 07:38:30;;;;;;;22.02;9.18;;;;;;;27.85;40.63;102207.75;5071000;28;20077;-72
2023/05/08 07:40:56;;;;;;;23.30;9.93;;;;;;;27.49;40.63;102206.38;5067954;28;20609;-72
2023/05/08 07:43:22;;;;;;;27.33;9.70;;;;;;;29.70;37.64;102210.09;5064509;28;20028;-73
2023/05/08 07:45:48;;;;;;;25.13;9.40;;;;;;;28.03;39.59;102207.59;5059028;28;20033;-71
2023/05/08 07:48:13;;;;;;;22.92;9.73;;;;;;;27.81;39.38;102208.91;5063157;28;20025;-73
2023/05/08 07:50:39;;;;;;;22.60;9.05;;;;;;;28.13;39.44;102200.69;5069005;28;21536;-72
2023/05/08 07:53:05;;;;;;;21.27;8.80;;;;;;;26.97;41.17;102212.09;5054761;28;20042;-71
2023/05/08 07:55:30;;;;;;;23.17;9.63;;;;;;;28.34;39.15;102213.72;5062118;28;20024;-71
2023/05/08 07:57:56;;;;;;;23.65;10.00;;;;;;;27.74;40.93;102221.00;5055047;28;20051;-73
2023/05/08 08:00:21;;;;;;;22.95;9.57;;;;;;;28.69;39.50;102213.28;5053108;28;20032;-72
2023/05/08 08:02:47;;;;;;;23.60;10.27;;;;;;;28.14;39.70;102218.53;5056196;28;20032;-73
2023/05/08 08:05:12;;;;;;;24.00;10.55;;;;;;;28.57;39.85;102220.28;5063291;28;20080;-72
2023/05/08 08:07:37;;;;;;;24.05;10.25;;;;;;;27.98;40.02;102223.09;5057294;28;20044;-72
2023/05/08 08:10:07;;;;;;;23.77;10.02;;;;;;;28.74;38.23;102224.59;5062550;28;20552;-72
2023/05/08 08:12:32;;;;;;;26.08;10.57;;;;;;;28.41;38.87;102226.66;5053636;28;20045;-72
2023/05/08 08:14:58;;;;;;;25.63;10.95;;;;;;;28.43;39.47;102223.88;5050520;28;20033;-72
2023/05/08 08:17:23;;;;;;;26.40;9.68;;;;;;;29.16;37.86;102222.72;5067489;28;20035;-72
2023/05/08 08:19:48;;;;;;;24.40;10.38;;;;;;;29.02;38.68;102231.72;5072683;28;20124;-72
2023/05/08 08:22:14;;;;;;;24.05;9.77;;;;;;;28.66;38.48;102229.59;5070514;28;20020;-72
2023/05/08 08:24:39;;;;;;;21.95;10.00;;;;;;;28.69;38.72;102221.38;5072802;28;20040;-71
2023/05/08 08:27:05;;;;;;;25.58;10.75;;;;;;;29.57;38.02;102220.88;5066979;28;20036;-72
2023/05/08 08:29:30;;;;;;;25.33;11.52;;;;;;;30.55;34.92;102217.59;5069727;28;20048;-72
2023/05/08 08:31:56;;;;;;;22.33;10.48;;;;;;;31.82;33.78;102216.13;5061140;28;20024;-71
2023/05/08 08:34:21;;;;;;;22.63;10.13;;;;;;;32.42;32.77;102214.03;5068867;28;20048;-72
2023/05/08 08:36:47;;;;;;;23.70;10.60;;;;;;;32.96;31.13;102215.88;5059621;28;20444;-72
2023/05/08 08:39:12;;;;;;;25.80;10.80;;;;;;;33.79;30.64;102207.94;5051059;28;20016;-71
2023/05/08 08:41:38;;;;;;;24.15;10.85;;;;;;;33.09;32.12;102209.44;5055063;28;20080;-72
2023/05/08 08:44:05;;;;;;;23.65;10.85;;;;;;;32.36;32.42;102210.00;5063079;28;20112;-72
2023/05/08 08:46:33;;;;;;;25.50;11.10;;;;;;;32.10;32.31;102212.94;5062926;28;20075;-72
2023/05/08 08:49:02;;;;;;;26.42;11.07;;;;;;;31.29;34.17;102212.09;5052352;28;20562;-72
2023/05/08 08:51:34;;;;;;;22.98;11.52;;;;;;;30.91;34.27;102205.03;5060254;28;20037;-72
2023/05/08 08:54:06;;;;;;;24.48;12.63;;;;;;;30.80;34.61;102216.63;5050405;28;20045;-72
2023/05/08 08:56:32;;;;;;;23.85;11.00;;;;;;;29.20;36.61;102220.69;5051295;28;20032;-72
2023/05/08 08:58:59;;;;;;;22.08;10.95;;;;;;;29.63;35.80;102208.81;5051035;28;20111;-72
2023/05/08 09:01:28;;;;;;;25.25;10.73;;;;;;;29.98;36.09;102208.19;5059104;28;20039;-72
2023/05/08 09:03:55;;;;;;;29.77;12.30;;;;;;;30.41;36.00;102213.19;5069330;28;20134;-71
2023/05/08 09:06:21;;;;;;;22.85;10.73;;;;;;;30.74;34.50;102198.22;5070202;28;20047;-72
2023/05/08 09:08:47;;;;;;;28.25;12.13;;;;;;;31.43;34.93;102208.31;5057753;28;20148;-72
2023/05/08 09:11:12;;;;;;;24.80;10.85;;;;;;;31.36;33.80;102212.47;5052932;28;20052;-74
2023/05/08 09:13:37;;;;;;;24.77;11.80;;;;;;;31.25;34.18;102211.44;5054962;28;20028;-73
2023/05/08 09:16:05;;;;;;;23.38;11.40;;;;;;;31.72;33.45;102199.78;5055554;28;20056;-73
2023/05/08 09:18:31;;;;;;;23.73;11.80;;;;;;;32.31;32.92;102204.09;5066704;28;20086;-73
2023/05/08 09:20:57;;;;;;;23.05;11.57;;;;;;;31.11;34.11;102206.25;5066897;28;20053;-73
2023/05/08 09:23:22;;;;;;;23.13;10.52;;;;;;;30.77;35.18;102209.63;5061478;28;20064;-73
2023/05/08 09:25:49;;;;;;;27.95;13.07;;;;;;;29.00;37.99;102220.16;5068123;28;20098;-72
2023/05/08 09:28:20;;;;;;;26.08;11.65;;;;;;;29.64;36.77;102210.56;5070482;28;20023;-73
2023/05/08 09:30:56;;;;;;;24.13;10.98;;;;;;;30.46;36.17;102213.75;5070552;28;20024;-73
2023/05/08 09:33:27;;;;;;;24.25;11.15;;;;;;;30.33;35.25;102216.44;5066480;28;20018;-72
2023/05/08 09:35:53;;;;;;;22.35;10.25;;;;;;;32.84;32.30;102206.09;5061122;28;20510;-73
2023/05/08 09:38:38;;;;;;;18.85;9.60;;;;;;;33.70;31.21;102202.44;5059826;28;20021;-73
2023/05/08 09:41:10;;;;;;;19.63;10.20;;;;;;;32.96;31.22;102207.78;5070261;28;20029;-73
2023/05/08 09:43:36;;;;;;;18.70;8.60;;;;;;;33.61;30.86;102204.97;5068452;28;20484;-73
2023/05/08 09:46:25;;;;;;;23.58;9.82;;;;;;;32.90;31.69;102210.13;5049418;28;20060;-73
2023/05/08 09:48:56;;;;;;;26.85;11.00;;;;;;;34.07;30.28;102207.34;5043445;28;20045;-73
2023/05/08 09:51:23;;;;;;;22.73;11.95;;;;;;;33.49;30.19;102215.00;5051315;28;20028;-73
2023/05/08 09:53:53;;;;;;;22.75;10.88;;;;;;;32.29;32.04;102212.34;5053762;28;20512;-73
2023/05/08 09:56:32;;;;;;;26.48;12.23;;;;;;;31.46;33.58;102210.75;5062787;28;20024;-73
2023/05/08 09:58:58;;;;;;;25.77;12.77;;;;;;;31.73;33.55;102215.03;5049010;28;20033;-73
2023/05/08 10:01:34;;;;;;;29.98;13.68;;;;;;;31.68;33.38;102212.66;5053528;28;20035;-73
2023/05/08 10:04:00;;;;;;;29.15;14.32;;;;;;;32.41;33.00;102215.91;5059438;28;20033;-74
2023/05/08 10:06:27;;;;;;;30.45;14.32;;;;;;;31.29;33.56;102212.94;5065006;28;20115;-73
2023/05/08 10:09:12;;;;;;;32.33;12.70;;;;;;;31.23;33.57;102218.81;5066930;28;20586;-73
2023/05/08 10:11:39;;;;;;;27.90;13.35;;;;;;;31.57;33.91;102208.09;5061184;28;20031;-73
2023/05/08 10:14:05;;;;;;;30.10;12.45;;;;;;;32.31;33.17;102214.91;5077256;28;20089;-74
2023/05/08 10:16:35;;;;;;;24.25;12.07;;;;;;;29.82;35.19;102217.34;5050084;28;20418;-73
2023/05/08 10:19:10;;;;;;;26.45;10.90;;;;;;;30.63;34.75;102218.75;5080727;28;20059;-74
2023/05/08 10:21:39;;;;;;;26.48;11.30;;;;;;;31.43;33.82;102217.25;5079127;28;20025;-74
2023/05/08 10:24:12;;;;;;;28.63;12.10;;;;;;;31.89;33.71;102215.53;5073160;28;20031;-73
2023/05/08 10:26:41;;;;;;;29.10;11.88;;;;;;;33.13;31.93;102213.59;5069370;28;20257;-73
2023/05/08 10:29:12;;;;;;;29.83;12.70;;;;;;;32.46;31.96;102215.50;5056729;28;20029;-73
2023/05/08 10:31:42;;;;;;;22.95;10.90;;;;;;;34.21;29.63;102209.69;5049581;28;20033;-73
2023/05/08 10:34:13;;;;;;;25.88;11.38;;;;;;;33.00;31.29;102213.75;5071788;28;20028;-73
2023/05/08 10:36:39;;;;;;;22.75;10.23;;;;;;;33.19;31.23;102221.19;5058431;28;20021;-73
2023/05/08 10:39:05;;;;;;;18.35;9.60;;;;;;;33.32;30.42;102221.03;5078466;28;20040;-73
2023/05/08 10:41:31;;;;;;;22.48;10.45;;;;;;;33.07;30.97;102216.81;5084700;28;20020;-73
2023/05/08 10:43:58;;;;;;;22.73;11.40;;;;;;;30.60;33.98;102216.28;5065640;28;20021;-73
2023/05/08 10:46:43;;;;;;;22.40;10.55;;;;;;;31.41;34.36;102215.69;5068236;28;20273;-73
2023/05/08 10:49:21;;;;;;;23.58;10.63;;;;;;;31.71;33.66;102216.97;5068463;28;20041;-73
2023/05/08 10:51:59;;;;;;;22.65;10.10;;;;;;;30.99;33.76;102215.25;5069208;28;20539;-73
2023/05/08 10:54:54;;;;;;;20.45;10.52;;;;;;;30.81;33.82;102212.09;5066817;28;20130;-73
2023/05/08 10:57:19;;;;;;;17.48;10.05;;;;;;;31.15;33.62;102214.97;5050992;28;20047;-73
2023/05/08 10:59:45;;;;;;;19.83;10.75;;;;;;;31.71;33.40;102216.97;5069369;28;20028;-73
2023/05/08 11:02:12;;;;;;;22.45;10.43;;;;;;;31.35;33.38;102210.75;5068789;28;20028;-73
2023/05/08 11:04:37;;;;;;;19.88;10.48;;;;;;;32.20;32.47;102199.56;5062243;28;20017;-73
2023/05/08 11:07:05;;;;;;;20.42;10.93;;;;;;;31.84;33.52;102201.53;5050478;28;20025;-73
2023/05/08 11:09:40;;;;;;;19.80;9.82;;;;;;;31.20;32.79;102202.84;5049261;28;20115;-73
2023/05/08 11:12:25;;;;;;;18.42;8.27;;;;;;;32.61;31.78;102206.13;5051706;28;20033;-72
2023/05/08 11:15:02;;;;;;;21.98;10.00;;;;;;;33.02;30.96;102200.97;5060195;28;20090;-73
2023/05/08 11:17:27;;;;;;;15.77;9.02;;;;;;;31.80;32.01;102197.34;5071697;28;20048;-73